Time;durP1;ratioP1;P1;durP2;ratioP2;P2;SDS_P1;SDS_P2;PMS_P1;PMS_P2;Temp;Humidity;BMP_temperature;BMP_pressure;BME280_temperature;BME280_humidity;BME280_pressure;Samples;Min_cycle;Max_cycle;Signal;HPM_P1;HPM_P2
2022/08/03 00:00:06;;;;;;;4.55;2.55;;;18.90;99.90;;;;;;5062060;28;20375;-84
2022/08/03 00:02:31;;;;;;;5.28;2.80;;;18.80;99.90;;;;;;5072381;28;20901;-84
2022/08/03 00:04:57;;;;;;;3.70;2.60;;;18.80;99.90;;;;;;5047284;28;20469;-85
2022/08/03 00:07:22;;;;;;;4.20;2.40;;;18.80;99.90;;;;;;5064817;28;20372;-83
2022/08/03 00:09:49;;;;;;;3.90;2.60;;;18.80;99.90;;;;;;5091629;28;20376;-85
2022/08/03 00:12:15;;;;;;;3.95;2.60;;;18.80;99.90;;;;;;5073686;28;20806;-85
2022/08/03 00:14:41;;;;;;;3.72;2.50;;;18.80;99.90;;;;;;5069949;28;20381;-84
2022/08/03 00:17:06;;;;;;;3.30;2.47;;;18.80;99.90;;;;;;5066599;28;20879;-85
2022/08/03 00:19:33;;;;;;;2.67;2.47;;;18.70;99.90;;;;;;5067580;28;20777;-84
2022/08/03 00:21:59;;;;;;;3.38;2.60;;;18.70;99.90;;;;;;5068840;28;20396;-84
2022/08/03 00:24:24;;;;;;;3.20;2.60;;;18.70;99.90;;;;;;5057681;28;20431;-84
2022/08/03 00:26:51;;;;;;;6.33;3.07;;;18.80;99.90;;;;;;5053290;28;20378;-84
2022/08/03 00:29:16;;;;;;;4.07;2.65;;;18.80;99.90;;;;;;5053250;28;20382;-84
2022/08/03 00:31:42;;;;;;;4.40;2.80;;;18.80;99.90;;;;;;5053505;28;20366;-83
2022/08/03 00:34:08;;;;;;;3.03;2.45;;;18.80;99.90;;;;;;5053016;28;20374;-84
2022/08/03 00:36:34;;;;;;;4.90;2.60;;;18.80;99.90;;;;;;5071397;28;20398;-83
2022/08/03 00:38:59;;;;;;;3.90;2.85;;;18.80;99.90;;;;;;5071437;28;20852;-84
2022/08/03 00:41:25;;;;;;;3.22;2.45;;;18.70;99.90;;;;;;5071109;28;20461;-84
2022/08/03 00:43:51;;;;;;;4.53;2.70;;;18.60;99.90;;;;;;5070939;28;20354;-84
2022/08/03 00:46:17;;;;;;;3.90;2.58;;;18.60;99.90;;;;;;5052932;28;20412;-84
2022/08/03 00:48:42;;;;;;;6.50;2.63;;;18.60;99.90;;;;;;5053084;28;20378;-83
2022/08/03 00:51:08;;;;;;;3.72;2.70;;;18.50;99.90;;;;;;5071235;28;20408;-83
2022/08/03 00:53:35;;;;;;;6.43;2.90;;;18.40;99.90;;;;;;5070485;28;20374;-83
2022/08/03 00:56:01;;;;;;;5.30;3.20;;;18.40;99.90;;;;;;5052882;28;20795;-83
2022/08/03 00:58:27;;;;;;;3.57;2.87;;;18.40;99.90;;;;;;5070950;28;20362;-83
2022/08/03 01:00:52;;;;;;;5.13;2.78;;;18.40;99.90;;;;;;5052627;28;20440;-84
2022/08/03 01:03:18;;;;;;;5.80;3.03;;;18.30;99.90;;;;;;5052567;28;20871;-85
2022/08/03 01:05:59;;;;;;;3.95;2.78;;;18.40;99.90;;;;;;5070912;28;20370;-85
2022/08/03 01:08:37;;;;;;;3.65;2.80;;;18.40;99.90;;;;;;5052964;28;20382;-85
2022/08/03 01:11:17;;;;;;;3.88;2.90;;;18.40;99.90;;;;;;5053059;28;20378;-84
2022/08/03 01:14:11;;;;;;;4.80;2.83;;;18.40;99.90;;;;;;5051559;28;20389;-84
2022/08/03 01:17:03;;;;;;;4.47;2.88;;;18.40;99.90;;;;;;5052380;28;20398;-85
2022/08/03 01:19:40;;;;;;;4.07;2.73;;;18.40;99.90;;;;;;5069766;28;20386;-84
2022/08/03 01:22:20;;;;;;;3.60;2.90;;;18.30;99.90;;;;;;5070403;28;20398;-84
2022/08/03 01:24:54;;;;;;;3.40;2.78;;;18.30;99.90;;;;;;5070349;28;20382;-84
2022/08/03 01:27:30;;;;;;;4.30;2.88;;;18.30;99.90;;;;;;5052730;28;20370;-85
2022/08/03 01:30:06;;;;;;;4.40;3.50;;;18.30;99.90;;;;;;5052523;28;20382;-84
2022/08/03 01:32:53;;;;;;;3.85;3.03;;;18.20;99.90;;;;;;5052066;28;20380;-85
2022/08/03 01:35:34;;;;;;;5.57;3.13;;;18.20;99.90;;;;;;5070420;28;20370;-84
2022/08/03 01:38:10;;;;;;;3.88;2.80;;;18.20;99.90;;;;;;5052028;28;20449;-84
2022/08/03 01:40:38;;;;;;;6.68;3.20;;;18.20;99.90;;;;;;5070560;28;20366;-85
2022/08/03 01:43:06;;;;;;;4.40;3.42;;;18.20;99.90;;;;;;5052096;28;20374;-84
2022/08/03 01:45:35;;;;;;;3.17;2.50;;;18.20;99.90;;;;;;5070199;28;20405;-85
2022/08/03 01:48:02;;;;;;;3.65;2.90;;;18.30;99.90;;;;;;5051915;28;20945;-84
2022/08/03 01:50:29;;;;;;;3.60;2.90;;;18.40;99.90;;;;;;5052855;28;20381;-84
2022/08/03 01:52:57;;;;;;;3.03;2.72;;;18.30;99.90;;;;;;5070041;28;20398;-84
2022/08/03 01:55:27;;;;;;;6.25;3.35;;;18.40;99.90;;;;;;5070027;28;20382;-84
2022/08/03 01:57:55;;;;;;;6.80;3.33;;;18.40;99.90;;;;;;5052181;28;20378;-84
2022/08/03 02:00:23;;;;;;;4.55;3.20;;;18.30;99.90;;;;;;5069788;28;20366;-83
2022/08/03 02:02:50;;;;;;;3.60;2.95;;;18.30;99.90;;;;;;5051708;28;20736;-84
2022/08/03 02:05:17;;;;;;;4.40;3.20;;;18.30;99.90;;;;;;5070262;28;20408;-84
2022/08/03 02:07:45;;;;;;;4.75;3.38;;;18.30;99.90;;;;;;5070005;28;20378;-84
2022/08/03 02:10:14;;;;;;;3.72;3.22;;;18.30;99.90;;;;;;5070277;28;20382;-84
2022/08/03 02:12:43;;;;;;;3.47;3.08;;;18.30;99.90;;;;;;5069201;28;20382;-84
2022/08/03 02:15:10;;;;;;;5.15;3.20;;;18.30;99.90;;;;;;5069926;28;20863;-85
2022/08/03 02:17:37;;;;;;;3.42;2.88;;;18.30;99.90;;;;;;5069934;28;20872;-85
2022/08/03 02:20:05;;;;;;;5.15;2.97;;;18.30;99.90;;;;;;5052229;28;20369;-85
2022/08/03 02:22:32;;;;;;;3.87;3.20;;;18.30;99.90;;;;;;5051563;28;20451;-85
2022/08/03 02:24:58;;;;;;;4.57;2.90;;;18.30;99.90;;;;;;5053522;28;20417;-84
2022/08/03 02:27:25;;;;;;;3.60;3.17;;;18.30;99.90;;;;;;5056011;28;20949;-84
2022/08/03 02:30:06;;;;;;;4.57;3.40;;;18.30;99.90;;;;;;5055651;28;20374;-85
2022/08/03 02:32:36;;;;;;;5.95;3.17;;;18.30;99.90;;;;;;5072868;28;20953;-84
2022/08/03 02:35:03;;;;;;;16.33;4.47;;;18.30;99.90;;;;;;5055859;28;20390;-84
2022/08/03 02:37:34;;;;;;;17.15;4.93;;;18.20;99.90;;;;;;5073689;28;20398;-84
2022/08/03 02:40:03;;;;;;;7.78;3.67;;;18.20;99.90;;;;;;5055677;28;20362;-84
2022/08/03 02:42:31;;;;;;;3.35;3.00;;;18.20;99.90;;;;;;5073135;28;20382;-84
2022/08/03 02:45:00;;;;;;;4.45;3.40;;;18.20;99.90;;;;;;5055158;28;20389;-84
2022/08/03 02:47:28;;;;;;;3.77;3.27;;;18.30;99.90;;;;;;5073443;28;20374;-83
2022/08/03 02:49:55;;;;;;;4.35;3.05;;;18.30;99.90;;;;;;5073618;28;20493;-84
2022/08/03 02:52:24;;;;;;;4.53;3.40;;;18.30;99.90;;;;;;5055159;28;20374;-84
2022/08/03 02:54:55;;;;;;;4.70;3.22;;;18.20;99.90;;;;;;5073136;28;20366;-81
2022/08/03 02:57:22;;;;;;;4.90;3.30;;;18.20;99.90;;;;;;5055311;28;20392;-84
2022/08/03 02:59:48;;;;;;;5.95;3.58;;;18.20;99.90;;;;;;5055444;28;20362;-84
2022/08/03 03:02:15;;;;;;;5.70;3.40;;;18.20;99.90;;;;;;5055233;28;20374;-83
2022/08/03 03:04:43;;;;;;;10.07;3.70;;;18.10;99.90;;;;;;5055214;28;20843;-83
2022/08/03 03:07:12;;;;;;;7.32;3.85;;;18.00;99.90;;;;;;5054930;28;20378;-84
2022/08/03 03:09:38;;;;;;;6.50;3.78;;;18.00;99.90;;;;;;5084544;28;20423;-84
2022/08/03 03:12:06;;;;;;;5.22;3.80;;;17.90;99.90;;;;;;5093149;28;20404;-83
2022/08/03 03:14:33;;;;;;;7.30;4.30;;;17.80;99.90;;;;;;5075177;28;20409;-84
2022/08/03 03:17:01;;;;;;;6.45;3.55;;;17.70;99.90;;;;;;5074896;28;20476;-84
2022/08/03 03:19:27;;;;;;;4.93;3.70;;;17.70;99.90;;;;;;5075012;28;20377;-84
2022/08/03 03:21:55;;;;;;;7.43;4.07;;;17.70;99.90;;;;;;5073732;28;20410;-83
2022/08/03 03:24:21;;;;;;;9.93;4.20;;;17.60;99.90;;;;;;5075032;28;20881;-84
2022/08/03 03:26:47;;;;;;;7.28;3.85;;;17.60;99.90;;;;;;5074865;28;20376;-84
2022/08/03 03:29:14;;;;;;;5.82;4.00;;;17.50;99.90;;;;;;5074956;28;20372;-84
2022/08/03 03:31:40;;;;;;;4.57;3.90;;;17.50;99.90;;;;;;5076035;28;20935;-84
2022/08/03 03:34:06;;;;;;;4.78;3.70;;;17.40;99.90;;;;;;5095422;28;20372;-84
2022/08/03 03:36:31;;;;;;;5.93;4.23;;;17.40;99.90;;;;;;5077301;28;20471;-83
2022/08/03 03:38:57;;;;;;;5.10;4.10;;;17.30;99.90;;;;;;5078154;28;20372;-84
2022/08/03 03:41:23;;;;;;;4.83;3.70;;;17.30;99.90;;;;;;5078005;28;20447;-84
2022/08/03 03:43:49;;;;;;;5.82;4.25;;;17.20;99.90;;;;;;5077650;28;20361;-84
2022/08/03 03:46:15;;;;;;;5.60;3.90;;;17.20;99.90;;;;;;5096634;28;20812;-84
2022/08/03 03:48:41;;;;;;;5.15;3.88;;;17.20;99.90;;;;;;5096323;28;20465;-84
2022/08/03 03:51:07;;;;;;;7.07;4.43;;;17.20;99.90;;;;;;5096585;28;20383;-84
2022/08/03 03:53:33;;;;;;;6.33;4.33;;;17.10;99.90;;;;;;5110563;28;20420;-85
2022/08/03 03:55:59;;;;;;;9.02;6.35;;;17.20;99.90;;;;;;5074450;28;20889;-84
2022/08/03 03:58:25;;;;;;;5.60;5.10;;;17.10;99.90;;;;;;5092107;28;20467;-84
2022/08/03 04:00:52;;;;;;;5.33;4.83;;;17.20;99.90;;;;;;5074435;28;20916;-84
2022/08/03 04:03:18;;;;;;;6.00;4.00;;;17.10;99.90;;;;;;5091917;28;20384;-84
2022/08/03 04:11:26;;;;;;;6.07;4.15;;;17.10;99.90;;;;;;5092477;28;20418;-84
2022/08/03 04:13:57;;;;;;;13.77;4.95;;;17.10;99.90;;;;;;5073249;28;20703;-83
2022/08/03 04:16:29;;;;;;;19.60;5.70;;;17.10;99.90;;;;;;5091916;28;20431;-84
2022/08/03 04:19:03;;;;;;;5.38;4.47;;;17.10;99.90;;;;;;5092041;28;20866;-84
2022/08/03 04:21:30;;;;;;;5.90;4.80;;;17.10;99.90;;;;;;5091813;28;20890;-84
2022/08/03 04:24:00;;;;;;;3.83;3.45;;;17.20;99.90;;;;;;5073408;28;20874;-84
2022/08/03 04:26:30;;;;;;;5.25;3.72;;;17.20;99.90;;;;;;5092089;28;20380;-84
2022/08/03 04:28:57;;;;;;;6.00;4.20;;;17.20;99.90;;;;;;5091965;28;20422;-84
2022/08/03 04:31:24;;;;;;;6.43;4.67;;;17.30;99.90;;;;;;5091999;28;20380;-84
2022/08/03 04:33:51;;;;;;;6.45;4.57;;;17.30;99.90;;;;;;5091027;28;20386;-84
2022/08/03 04:36:21;;;;;;;5.27;4.23;;;17.30;99.90;;;;;;5073562;28;20388;-84
2022/08/03 04:39:12;;;;;;;6.07;4.15;;;17.30;99.90;;;;;;5073344;28;20873;-85
2022/08/03 04:41:38;;;;;;;5.65;4.00;;;17.30;99.90;;;;;;5091788;28;20479;-85
2022/08/03 04:44:05;;;;;;;5.03;4.35;;;17.30;99.90;;;;;;5072990;28;20412;-84
2022/08/03 04:46:34;;;;;;;4.30;3.90;;;17.40;99.90;;;;;;5091618;28;20368;-85
2022/08/03 04:49:00;;;;;;;7.03;4.00;;;17.50;99.90;;;;;;5073177;28;20404;-85
2022/08/03 04:51:26;;;;;;;6.05;4.35;;;17.70;99.90;;;;;;5091132;28;20367;-84
2022/08/03 04:53:52;;;;;;;6.78;5.32;;;17.90;99.90;;;;;;5072929;28;20742;-85
2022/08/03 04:56:18;;;;;;;6.80;5.47;;;18.00;99.90;;;;;;5090932;28;20392;-84
2022/08/03 04:58:43;;;;;;;5.00;3.90;;;18.20;99.90;;;;;;5073148;28;20390;-84
2022/08/03 05:01:09;;;;;;;4.47;4.00;;;18.40;99.90;;;;;;5091391;28;20772;-85
2022/08/03 05:03:35;;;;;;;18.70;4.40;;;18.60;99.90;;;;;;5072895;28;20368;-84
2022/08/03 05:06:01;;;;;;;19.90;4.80;;;19.00;99.90;;;;;;5072573;28;20391;-85
2022/08/03 05:08:26;;;;;;;48.35;8.68;;;19.30;99.90;;;;;;5072887;28;20452;-85
2022/08/03 05:10:52;;;;;;;9.25;4.15;;;19.70;99.90;;;;;;5072995;28;20471;-85
2022/08/03 05:13:18;;;;;;;13.03;3.73;;;20.00;99.90;;;;;;5090711;28;20368;-84
2022/08/03 05:15:43;;;;;;;7.63;3.50;;;20.30;99.90;;;;;;5090527;28;20799;-85
2022/08/03 05:18:09;;;;;;;4.47;3.37;;;20.40;99.90;;;;;;5072846;28;20369;-85
2022/08/03 05:20:35;;;;;;;6.00;3.97;;;20.50;99.90;;;;;;5090782;28;20368;-85
2022/08/03 05:23:02;;;;;;;11.83;4.50;;;20.50;99.90;;;;;;5072484;28;20380;-84
2022/08/03 05:25:28;;;;;;;7.32;4.28;;;20.60;99.90;;;;;;5090564;28;20407;-85
2022/08/03 05:27:54;;;;;;;11.17;3.73;;;20.60;99.90;;;;;;5072350;28;20813;-85
2022/08/03 05:30:20;;;;;;;11.07;3.85;;;20.60;99.90;;;;;;5090886;28;20368;-85
2022/08/03 05:32:45;;;;;;;5.97;3.53;;;20.70;99.90;;;;;;5072140;28;20368;-86
2022/08/03 05:35:11;;;;;;;10.25;3.83;;;20.80;99.90;;;;;;5072676;28;20373;-85
2022/08/03 05:37:36;;;;;;;37.90;6.13;;;20.90;99.90;;;;;;5071989;28;20491;-85
2022/08/03 05:40:03;;;;;;;26.55;6.47;;;21.00;99.90;;;;;;5072458;28;20422;-84
2022/08/03 05:42:32;;;;;;;17.48;4.65;;;21.10;99.90;;;;;;5090780;28;20509;-85
2022/08/03 05:44:57;;;;;;;9.63;3.40;;;21.20;99.90;;;;;;5074201;28;20373;-84
2022/08/03 05:47:23;;;;;;;6.85;3.10;;;21.50;99.90;;;;;;5074317;28;20715;-84
2022/08/03 05:49:48;;;;;;;6.40;2.90;;;21.80;99.90;;;;;;5074510;28;20384;-85
2022/08/03 05:52:14;;;;;;;16.65;3.75;;;21.90;99.90;;;;;;5073189;28;20442;-85
2022/08/03 05:54:43;;;;;;;11.10;3.20;;;22.00;99.90;;;;;;5073152;28;20383;-85
2022/08/03 05:57:09;;;;;;;35.63;6.00;;;22.10;99.90;;;;;;5073812;28;20412;-84
2022/08/03 05:59:42;;;;;;;14.20;3.50;;;22.30;99.90;;;;;;5073390;28;20450;-85
2022/08/03 06:02:08;;;;;;;15.98;3.72;;;22.50;99.90;;;;;;5091059;28;20364;-84
2022/08/03 06:04:33;;;;;;;10.55;2.85;;;22.60;99.90;;;;;;5072985;28;20388;-86
2022/08/03 06:06:59;;;;;;;6.73;2.87;;;22.70;99.90;;;;;;5073323;28;20447;-84
2022/08/03 06:09:25;;;;;;;5.80;2.33;;;22.80;99.90;;;;;;5073969;28;20408;-85
2022/08/03 06:11:50;;;;;;;6.20;2.20;;;23.00;99.90;;;;;;5073217;28;20824;-85
2022/08/03 06:14:18;;;;;;;7.90;2.40;;;23.20;99.90;;;;;;5091586;28;20376;-86
2022/08/03 06:16:47;;;;;;;13.02;2.97;;;23.30;99.90;;;;;;5091071;28;20399;-85
2022/08/03 06:19:12;;;;;;;8.75;2.33;;;23.50;99.90;;;;;;5091852;28;20470;-85
2022/08/03 06:21:38;;;;;;;5.85;2.13;;;23.60;99.90;;;;;;5091932;28;20373;-84
2022/08/03 06:24:04;;;;;;;5.07;2.22;;;23.80;99.90;;;;;;5091127;28;20386;-85
2022/08/03 06:26:32;;;;;;;6.55;2.53;;;23.90;99.90;;;;;;5091179;28;20365;-85
2022/08/03 06:28:57;;;;;;;5.43;2.33;;;24.10;99.90;;;;;;5072881;28;20396;-84
2022/08/03 06:31:26;;;;;;;5.40;2.30;;;24.30;99.90;;;;;;5073125;28;20404;-85
2022/08/03 06:33:52;;;;;;;6.95;2.20;;;24.50;99.90;;;;;;5090635;28;20385;-85
2022/08/03 06:36:18;;;;;;;10.48;3.17;;;24.70;99.90;;;;;;5073816;28;20426;-83
2022/08/03 06:38:43;;;;;;;8.25;2.63;;;24.90;99.90;;;;;;5091083;28;20452;-83
2022/08/03 06:41:09;;;;;;;6.10;2.50;;;25.10;99.90;;;;;;5075005;28;20379;-84
2022/08/03 06:43:36;;;;;;;6.28;2.38;;;25.50;99.90;;;;;;5073033;28;20372;-84
2022/08/03 06:46:03;;;;;;;7.00;2.20;;;26.00;99.90;;;;;;5073131;28;20609;-85
2022/08/03 06:48:28;;;;;;;6.32;2.08;;;26.60;99.50;;;;;;5073404;28;20377;-85
2022/08/03 06:50:54;;;;;;;5.20;1.90;;;27.30;98.00;;;;;;5073405;28;20372;-84
2022/08/03 06:53:20;;;;;;;6.25;2.22;;;27.70;97.00;;;;;;5092167;28;20409;-86
2022/08/03 06:55:45;;;;;;;7.70;2.33;;;28.10;95.90;;;;;;5091150;28;20360;-86
2022/08/03 06:58:11;;;;;;;5.20;1.90;;;28.50;95.10;;;;;;5090589;28;20866;-85
2022/08/03 07:00:37;;;;;;;9.67;2.43;;;28.90;94.30;;;;;;5090750;28;20378;-85
2022/08/03 07:03:02;;;;;;;5.50;1.87;;;29.30;93.30;;;;;;5090712;28;20373;-85
2022/08/03 07:05:29;;;;;;;2.70;1.77;;;29.50;92.80;;;;;;5090838;28;20372;-86
2022/08/03 07:07:56;;;;;;;3.75;1.80;;;29.60;92.70;;;;;;5091863;28;20372;-85
2022/08/03 07:10:22;;;;;;;4.25;1.85;;;29.90;92.00;;;;;;5092326;28;20369;-85
2022/08/03 07:12:47;;;;;;;6.40;2.17;;;30.00;91.60;;;;;;5074397;28;20379;-82
2022/08/03 07:15:13;;;;;;;4.37;1.80;;;30.20;90.60;;;;;;5094752;28;20418;-85
2022/08/03 07:17:39;;;;;;;9.90;2.10;;;30.30;89.30;;;;;;5094338;28;20421;-87
2022/08/03 07:20:06;;;;;;;4.00;1.95;;;30.20;89.90;;;;;;5076384;28;20433;-86
2022/08/03 07:22:36;;;;;;;4.00;1.55;;;30.20;89.50;;;;;;5076811;28;20383;-86
2022/08/03 07:25:02;;;;;;;4.47;1.80;;;30.20;89.10;;;;;;5096016;28;20365;-85
2022/08/03 07:27:29;;;;;;;4.53;2.13;;;30.20;88.50;;;;;;5076613;28;20975;-87
2022/08/03 07:29:55;;;;;;;2.70;1.65;;;30.30;86.70;;;;;;5095613;28;20372;-83
2022/08/03 07:32:22;;;;;;;4.53;1.88;;;30.20;87.30;;;;;;5094997;28;20376;-85
2022/08/03 07:34:48;;;;;;;5.10;1.90;;;30.20;85.70;;;;;;5095202;28;20529;-83
2022/08/03 07:37:20;;;;;;;3.97;1.47;;;30.20;85.10;;;;;;5076782;28;20435;-84
2022/08/03 07:39:46;;;;;;;3.80;1.67;;;30.30;85.70;;;;;;5076646;28;20375;-86
2022/08/03 07:42:11;;;;;;;2.60;1.60;;;30.30;83.70;;;;;;5060005;28;20743;-85
2022/08/03 07:44:38;;;;;;;3.37;1.57;;;30.30;84.00;;;;;;5059366;28;20868;-83
2022/08/03 07:47:04;;;;;;;4.80;1.70;;;30.30;83.50;;;;;;5039110;28;20867;-84
2022/08/03 07:49:30;;;;;;;3.53;1.60;;;30.40;84.00;;;;;;5074422;28;20370;-83
2022/08/03 07:54:40;;;;;;;4.10;1.77;;;30.60;82.80;;;;;;5075568;28;20376;-85
2022/08/03 07:57:05;;;;;;;3.27;1.40;;;30.60;81.90;;;;;;5054772;28;20484;-83
2022/08/03 07:59:31;;;;;;;3.97;1.77;;;30.40;82.90;;;;;;5043604;28;20429;-83
2022/08/03 08:01:57;;;;;;;6.05;1.90;;;30.50;83.30;;;;;;5051962;28;20465;-84
2022/08/03 08:04:22;;;;;;;5.07;1.70;;;30.70;81.50;;;;;;5053429;28;20810;-86
2022/08/03 08:06:48;;;;;;;5.67;1.50;;;30.70;81.70;;;;;;5057168;28;20429;-85
2022/08/03 08:09:14;;;;;;;3.08;1.55;;;30.80;80.90;;;;;;5056112;28;20730;-85
2022/08/03 08:11:40;;;;;;;3.22;1.50;;;31.00;80.90;;;;;;5063345;28;20412;-85
2022/08/03 08:14:06;;;;;;;4.50;1.60;;;31.00;80.90;;;;;;5072227;28;20399;-83
2022/08/03 08:16:32;;;;;;;3.90;1.50;;;31.20;79.40;;;;;;5051483;28;20391;-86
2022/08/03 08:18:58;;;;;;;4.80;1.70;;;31.20;79.60;;;;;;5034470;28;20414;-83
2022/08/03 08:21:26;;;;;;;1.83;1.23;;;31.30;78.50;;;;;;5034778;28;20453;-84
2022/08/03 08:23:51;;;;;;;4.97;2.03;;;31.50;79.80;;;;;;5046237;28;20387;-85
2022/08/03 08:26:17;;;;;;;3.47;1.65;;;31.50;77.10;;;;;;5034121;28;20371;-85
2022/08/03 08:28:46;;;;;;;5.22;1.90;;;31.50;76.10;;;;;;5052468;28;20479;-85
2022/08/03 08:31:13;;;;;;;5.18;1.63;;;31.50;77.40;;;;;;5054381;28;20383;-87
2022/08/03 08:33:40;;;;;;;5.38;1.60;;;31.70;77.60;;;;;;5033133;28;20379;-85
2022/08/03 08:36:05;;;;;;;6.07;1.77;;;31.70;78.40;;;;;;5021722;28;20393;-85
2022/08/03 08:38:34;;;;;;;5.38;1.65;;;31.90;78.60;;;;;;5016054;28;20396;-86
2022/08/03 08:40:59;;;;;;;9.30;1.70;;;31.90;76.20;;;;;;5034178;28;20394;-84
2022/08/03 08:43:26;;;;;;;3.38;1.60;;;32.00;75.30;;;;;;5046427;28;20865;-85
2022/08/03 08:45:53;;;;;;;5.80;1.70;;;32.10;76.00;;;;;;5034237;28;20522;-86
2022/08/03 08:48:25;;;;;;;7.25;1.67;;;32.10;75.70;;;;;;5031291;28;20392;-87
2022/08/03 08:50:56;;;;;;;3.50;1.70;;;32.20;76.10;;;;;;5017281;28;20385;-84
2022/08/03 08:53:27;;;;;;;4.25;1.50;;;32.20;75.40;;;;;;5034706;28;20376;-84
2022/08/03 08:55:57;;;;;;;2.55;1.40;;;32.20;74.60;;;;;;5033944;28;22335;-86
2022/08/03 08:58:25;;;;;;;4.43;1.70;;;32.20;73.50;;;;;;5031956;28;20455;-87
2022/08/03 09:00:50;;;;;;;3.60;1.50;;;32.10;74.70;;;;;;5037259;28;20381;-84
2022/08/03 09:03:17;;;;;;;3.05;1.63;;;32.10;75.20;;;;;;5015077;28;20443;-84
2022/08/03 09:05:43;;;;;;;4.32;1.83;;;32.20;75.00;;;;;;5031655;28;20800;-85
2022/08/03 09:08:25;;;;;;;3.22;1.77;;;32.20;74.50;;;;;;5051439;28;20494;-87
2022/08/03 09:10:51;;;;;;;2.60;1.80;;;32.10;73.40;;;;;;5044193;28;20369;-87
2022/08/03 09:13:16;;;;;;;4.03;1.53;;;32.00;75.90;;;;;;5032554;28;20772;-86
2022/08/03 09:15:43;;;;;;;2.85;1.40;;;32.20;73.70;;;;;;5012067;28;20509;-84
2022/08/03 09:18:09;;;;;;;3.88;1.80;;;32.20;74.50;;;;;;5013272;28;20396;-83
2022/08/03 09:20:35;;;;;;;4.57;1.90;;;32.30;73.70;;;;;;5031914;28;20377;-87
2022/08/03 09:23:10;;;;;;;2.08;1.60;;;32.40;73.90;;;;;;5032068;28;20460;-85
2022/08/03 09:25:38;;;;;;;6.25;1.70;;;32.40;74.50;;;;;;5031635;28;20366;-85
2022/08/03 09:28:15;;;;;;;4.72;1.77;;;32.50;74.70;;;;;;5034571;28;20394;-86
2022/08/03 09:30:57;;;;;;;1.50;1.40;;;32.50;73.50;;;;;;5014196;28;20883;-85
2022/08/03 09:33:23;;;;;;;1.90;1.60;;;32.40;72.10;;;;;;5013957;28;20461;-85
2022/08/03 09:35:49;;;;;;;3.08;1.90;;;32.30;73.60;;;;;;5013973;28;20393;-87
2022/08/03 09:38:16;;;;;;;1.98;1.60;;;32.30;74.60;;;;;;5013349;28;20468;-87
2022/08/03 09:40:45;;;;;;;3.95;1.67;;;32.40;73.80;;;;;;5013792;28;20887;-87
2022/08/03 09:43:11;;;;;;;2.60;1.40;;;32.40;75.40;;;;;;5031352;28;20453;-88
2022/08/03 09:45:39;;;;;;;3.42;1.65;;;32.40;74.60;;;;;;5031334;28;20457;-83
2022/08/03 09:48:28;;;;;;;5.22;1.83;;;32.50;73.40;;;;;;5012986;28;20878;-84
2022/08/03 09:50:56;;;;;;;2.95;1.50;;;32.50;75.50;;;;;;5013891;28;20386;-86
2022/08/03 09:53:25;;;;;;;5.25;1.70;;;32.80;75.60;;;;;;5031325;28;20974;-86
2022/08/03 09:55:56;;;;;;;3.65;1.75;;;32.80;73.20;;;;;;5031689;28;20420;-87
2022/08/03 09:58:27;;;;;;;3.00;1.60;;;32.80;73.60;;;;;;5029609;28;20887;-86
2022/08/03 10:00:58;;;;;;;3.00;1.60;;;32.90;73.20;;;;;;5014792;28;20390;-83
2022/08/03 10:03:34;;;;;;;2.78;1.60;;;32.80;73.00;;;;;;5018284;28;20792;-84
2022/08/03 10:06:14;;;;;;;3.47;1.60;;;32.90;72.30;;;;;;5032385;28;20381;-89
2022/08/03 10:08:39;;;;;;;3.10;1.50;;;32.80;71.90;;;;;;5014782;28;20385;-85
2022/08/03 10:11:08;;;;;;;2.83;1.70;;;32.80;72.90;;;;;;5015122;28;20463;-84
2022/08/03 10:13:35;;;;;;;3.47;1.80;;;32.80;72.30;;;;;;5014812;28;20389;-83
2022/08/03 10:16:03;;;;;;;3.85;1.75;;;32.90;73.10;;;;;;5032637;28;20435;-85
2022/08/03 10:18:29;;;;;;;2.30;1.60;;;32.90;73.70;;;;;;5014030;28;20381;-88
2022/08/03 10:21:05;;;;;;;2.73;1.77;;;33.00;73.50;;;;;;5030987;28;20389;-87
2022/08/03 10:23:42;;;;;;;2.08;1.55;;;33.10;72.40;;;;;;5017501;28;20396;-86
2022/08/03 10:26:29;;;;;;;3.92;1.50;;;33.10;72.40;;;;;;5019184;28;20387;-85
2022/08/03 10:29:13;;;;;;;3.40;1.70;;;33.00;73.30;;;;;;5019122;28;20504;-87
2022/08/03 10:31:43;;;;;;;2.63;1.60;;;33.00;73.80;;;;;;5019181;28;20381;-89
2022/08/03 10:34:33;;;;;;;3.35;1.80;;;33.10;73.30;;;;;;5018125;28;20409;-86
2022/08/03 10:37:13;;;;;;;3.60;1.55;;;33.20;74.00;;;;;;5017223;28;20433;-87
2022/08/03 10:39:52;;;;;;;2.75;1.58;;;33.30;71.80;;;;;;5017980;28;20373;-88
2022/08/03 10:42:24;;;;;;;2.85;1.50;;;33.30;71.90;;;;;;5017101;28;20871;-87
2022/08/03 10:45:05;;;;;;;3.90;1.63;;;33.40;72.00;;;;;;5017788;28;20384;-88
2022/08/03 10:47:33;;;;;;;2.97;1.52;;;33.30;73.90;;;;;;5021552;28;20390;-86
2022/08/03 10:50:09;;;;;;;2.47;1.80;;;33.30;72.30;;;;;;5034284;28;20412;-84
2022/08/03 10:52:35;;;;;;;12.15;2.00;;;33.30;71.90;;;;;;5021474;28;20400;-85
2022/08/03 13:55:19;;;;;;;2.85;1.60;;;33.60;69.20;;;;;;5271040;23;20910;-88
2022/08/03 13:57:45;;;;;;;2.37;1.40;;;33.60;68.40;;;;;;5002678;28;20442;-86
2022/08/03 14:00:11;;;;;;;2.53;1.58;;;33.70;70.20;;;;;;4982679;28;20409;-89
2022/08/03 14:02:36;;;;;;;1.27;1.17;;;33.70;69.70;;;;;;4967921;28;20439;-89
2022/08/03 14:05:02;;;;;;;1.87;1.40;;;33.80;67.90;;;;;;4968719;28;20498;-87
2022/08/03 14:07:31;;;;;;;1.70;1.42;;;33.70;67.90;;;;;;4975049;28;20904;-87
2022/08/03 14:09:57;;;;;;;2.50;1.50;;;33.60;68.70;;;;;;4979640;28;20384;-87
2022/08/03 14:12:22;;;;;;;5.30;1.33;;;33.40;69.20;;;;;;4962442;28;20383;-87
2022/08/03 14:14:51;;;;;;;2.43;1.73;;;33.30;68.90;;;;;;4961226;28;20394;-88
2022/08/03 14:17:16;;;;;;;1.58;1.40;;;33.30;68.50;;;;;;4962329;28;20409;-87
2022/08/03 14:19:42;;;;;;;1.67;1.50;;;33.30;70.20;;;;;;4978141;28;20959;-88
2022/08/03 14:22:08;;;;;;;1.60;1.37;;;33.20;70.10;;;;;;4970697;28;20413;-89
2022/08/03 14:24:33;;;;;;;1.88;1.33;;;33.30;70.30;;;;;;4983426;28;20385;-87
2022/08/03 14:26:59;;;;;;;2.58;1.58;;;33.40;69.20;;;;;;4982764;28;20386;-87
2022/08/03 14:29:25;;;;;;;2.03;1.42;;;33.30;69.60;;;;;;4957634;28;20865;-89
2022/08/03 14:31:50;;;;;;;1.70;1.25;;;33.50;70.00;;;;;;4973049;28;20402;-89
2022/08/03 14:34:16;;;;;;;2.53;1.30;;;33.60;67.90;;;;;;4956352;28;20449;-89
2022/08/03 14:36:42;;;;;;;4.33;1.50;;;33.50;68.80;;;;;;4956466;28;20406;-88
2022/08/03 14:39:07;;;;;;;1.90;1.52;;;33.50;69.50;;;;;;4957370;28;20413;-88
2022/08/03 14:41:33;;;;;;;3.10;1.50;;;33.60;69.40;;;;;;4973822;28;20772;-88
2022/08/03 14:43:59;;;;;;;2.10;1.50;;;33.50;69.20;;;;;;4957187;28;20789;-87
2022/08/03 14:46:24;;;;;;;2.33;1.50;;;33.40;68.60;;;;;;4956707;28;20805;-89
2022/08/03 14:48:50;;;;;;;2.40;1.40;;;33.30;69.40;;;;;;4956696;28;20386;-87
2022/08/03 14:51:16;;;;;;;3.75;1.52;;;33.30;70.00;;;;;;4973724;28;20374;-88
2022/08/03 14:53:41;;;;;;;5.22;1.60;;;33.60;69.80;;;;;;4955863;28;20461;-88
2022/08/03 14:56:07;;;;;;;1.85;1.50;;;33.60;69.70;;;;;;4956293;28;20527;-88
2022/08/03 14:58:33;;;;;;;3.10;1.40;;;33.60;70.20;;;;;;4967559;28;20411;-89
2022/08/03 15:00:58;;;;;;;5.40;1.60;;;33.70;67.80;;;;;;4982584;28;20387;-85
2022/08/03 15:03:24;;;;;;;1.93;1.40;;;33.60;68.70;;;;;;4964350;28;20376;-88
2022/08/03 15:05:54;;;;;;;2.50;1.50;;;33.60;68.60;;;;;;4972344;28;20400;-87
2022/08/03 15:08:21;;;;;;;3.90;1.83;;;33.60;68.70;;;;;;4972222;28;20466;-88
2022/08/03 15:10:47;;;;;;;4.07;1.98;;;33.50;68.90;;;;;;4981081;28;20485;-88
2022/08/03 15:13:13;;;;;;;28.67;3.55;;;33.50;68.30;;;;;;4981716;28;20791;-85
2022/08/03 15:15:40;;;;;;;2.15;1.60;;;33.60;67.80;;;;;;4972164;28;20437;-88
2022/08/03 15:18:07;;;;;;;3.70;1.50;;;33.60;68.10;;;;;;4965729;28;20922;-89
2022/08/03 15:20:33;;;;;;;2.30;1.60;;;33.60;68.40;;;;;;4981283;28;20390;-88
2022/08/03 15:22:58;;;;;;;1.87;1.50;;;33.60;68.70;;;;;;4963905;28;20389;-89
2022/08/03 15:25:24;;;;;;;3.38;1.55;;;33.60;68.60;;;;;;4981341;28;20459;-89
2022/08/03 15:27:50;;;;;;;1.45;1.35;;;33.70;69.00;;;;;;4969144;28;20831;-89
2022/08/03 15:30:16;;;;;;;2.20;1.33;;;33.70;69.00;;;;;;4963991;28;20871;-87
2022/08/03 15:32:42;;;;;;;2.80;1.70;;;33.80;67.50;;;;;;4986993;28;20391;-87
2022/08/03 15:35:07;;;;;;;4.00;1.60;;;33.80;68.40;;;;;;5006663;28;20857;-89
2022/08/03 15:37:33;;;;;;;2.92;1.33;;;33.80;67.70;;;;;;4977876;28;20407;-87
2022/08/03 15:39:59;;;;;;;2.50;1.50;;;33.80;68.90;;;;;;4974104;28;20390;-88
2022/08/03 15:42:24;;;;;;;4.50;1.60;;;33.80;68.80;;;;;;4973858;28;20433;-88
2022/08/03 15:44:50;;;;;;;3.37;1.60;;;33.70;68.30;;;;;;4974605;28;20381;-88
2022/08/03 15:47:16;;;;;;;2.30;1.50;;;33.60;68.50;;;;;;4981189;28;20390;-87
2022/08/03 15:49:41;;;;;;;3.03;1.40;;;33.60;68.50;;;;;;4973744;28;20396;-87
2022/08/03 15:52:07;;;;;;;3.25;1.40;;;33.50;68.80;;;;;;4973409;28;20387;-88
2022/08/03 15:54:33;;;;;;;2.90;1.40;;;33.40;69.00;;;;;;4992912;28;20430;-89
2022/08/03 15:56:59;;;;;;;2.03;1.43;;;33.30;69.70;;;;;;4992246;28;20409;-88